sensor_id;sensor_type;location;lat;lon;timestamp;pressure;altitude;pressure_sealevel;temperature;humidity
76044;BME280;64740;34.694;33.088;2022-12-10T00:00:00;1044.8;;;19.4;55.4
76044;BME280;64740;34.694;33.088;2022-12-10T00:04:36;1044.7;;;19.3;55.3
76044;BME280;64740;34.694;33.088;2022-12-10T00:09:28;1044.7;;;19.3;55.3
76044;BME280;64740;34.694;33.088;2022-12-10T00:14:36;1044.7;;;19.3;55.2
76044;BME280;64740;34.694;33.088;2022-12-10T00:19:40;1044.7;;;19.4;55.2
76044;BME280;64740;34.694;33.088;2022-12-10T00:24:58;1044.7;;;19.4;55.1
76044;BME280;64740;34.694;33.088;2022-12-10T00:29:36;1044.6;;;19.3;54.9
76044;BME280;64740;34.694;33.088;2022-12-10T00:35:00;1044.6;;;19.3;54.8
76044;BME280;64740;34.694;33.088;2022-12-10T00:39:48;1044.5;;;19.2;54.8
76044;BME280;64740;34.694;33.088;2022-12-10T00:44:48;1044.5;;;19.2;54.9
76044;BME280;64740;34.694;33.088;2022-12-10T00:49:20;1044.4;;;19.2;54.9
76044;BME280;64740;34.694;33.088;2022-12-10T00:54:52;1044.4;;;19.2;54.8
76044;BME280;64740;34.694;33.088;2022-12-10T01:00:00;1044.4;;;19.1;54.8
76044;BME280;64740;34.694;33.088;2022-12-10T01:04:36;1044.5;;;19.1;55.1
76044;BME280;64740;34.694;33.088;2022-12-10T01:09:30;1044.4;;;19.2;55.1
76044;BME280;64740;34.694;33.088;2022-12-10T01:14:40;1044.4;;;19.2;54.8
76044;BME280;64740;34.694;33.088;2022-12-10T01:19:20;1044.4;;;19.2;54.9
76044;BME280;64740;34.694;33.088;2022-12-10T01:25:04;1044.4;;;19.2;54.8
76044;BME280;64740;34.694;33.088;2022-12-10T01:29:32;1044.4;;;19.2;54.6
76044;BME280;64740;34.694;33.088;2022-12-10T01:34:52;1044.3;;;19.3;54.6
76044;BME280;64740;34.694;33.088;2022-12-10T01:39:52;1044.3;;;19.2;54.2
76044;BME280;64740;34.694;33.088;2022-12-10T01:44:57;1044.3;;;19.2;54.4
76044;BME280;64740;34.694;33.088;2022-12-10T01:49:34;1044.2;;;19.1;54.2
76044;BME280;64740;34.694;33.088;2022-12-10T01:54:54;1044.3;;;19.1;54.2
76044;BME280;64740;34.694;33.088;2022-12-10T02:00:04;1044.3;;;19.1;54.2
76044;BME280;64740;34.694;33.088;2022-12-10T02:04:48;1044.2;;;19.1;54.1
76044;BME280;64740;34.694;33.088;2022-12-10T02:09:22;1044.2;;;19;54.2
76044;BME280;64740;34.694;33.088;2022-12-10T02:14:45;1044.2;;;19;54
76044;BME280;64740;34.694;33.088;2022-12-10T02:19:51;1044.2;;;19;54.1
76044;BME280;64740;34.694;33.088;2022-12-10T02:25:05;1044.2;;;18.9;54.1
76044;BME280;64740;34.694;33.088;2022-12-10T02:29:32;1044.2;;;18.9;54.1
76044;BME280;64740;34.694;33.088;2022-12-10T02:35:05;1044.2;;;18.9;54.1
76044;BME280;64740;34.694;33.088;2022-12-10T02:39:57;1044.2;;;18.9;54.1
76044;BME280;64740;34.694;33.088;2022-12-10T02:44:52;1044.2;;;18.9;54.2
76044;BME280;64740;34.694;33.088;2022-12-10T02:49:40;1044.1;;;18.9;54.1
76044;BME280;64740;34.694;33.088;2022-12-10T02:55:05;1044.1;;;18.9;54.1
76044;BME280;64740;34.694;33.088;2022-12-10T02:59:47;1044.1;;;18.9;54.2
76044;BME280;64740;34.694;33.088;2022-12-10T03:04:42;1044.1;;;18.8;54
76044;BME280;64740;34.694;33.088;2022-12-10T03:09:34;1044.1;;;18.8;54.1
76044;BME280;64740;34.694;33.088;2022-12-10T03:14:42;1044.2;;;18.8;54
76044;BME280;64740;34.694;33.088;2022-12-10T03:20:03;1044.2;;;18.7;53.9
76044;BME280;64740;34.694;33.088;2022-12-10T03:24:52;1044.2;;;18.7;53.9
76044;BME280;64740;34.694;33.088;2022-12-10T03:29:44;1044.2;;;18.7;53.9
76044;BME280;64740;34.694;33.088;2022-12-10T03:34:53;1044.3;;;18.7;54.1
76044;BME280;64740;34.694;33.088;2022-12-10T03:39:54;1044.3;;;18.7;54
76044;BME280;64740;34.694;33.088;2022-12-10T03:44:52;1044.4;;;18.7;53.9
76044;BME280;64740;34.694;33.088;2022-12-10T03:49:32;1044.4;;;18.6;53.9
76044;BME280;64740;34.694;33.088;2022-12-10T03:55:03;1044.5;;;18.6;53.9
76044;BME280;64740;34.694;33.088;2022-12-10T03:59:42;1044.5;;;18.6;53.9
76044;BME280;64740;34.694;33.088;2022-12-10T04:04:40;1044.5;;;18.6;53.9
76044;BME280;64740;34.694;33.088;2022-12-10T04:09:20;1044.6;;;18.6;53.9
76044;BME280;64740;34.694;33.088;2022-12-10T04:14:40;1044.6;;;18.6;53.8
76044;BME280;64740;34.694;33.088;2022-12-10T04:20:05;1044.6;;;18.6;53.7
76044;BME280;64740;34.694;33.088;2022-12-10T04:24:54;1044.5;;;18.6;53.8
76044;BME280;64740;34.694;33.088;2022-12-10T04:29:29;1044.6;;;18.5;53.8
76044;BME280;64740;34.694;33.088;2022-12-10T04:34:51;1044.6;;;18.5;53.7
76044;BME280;64740;34.694;33.088;2022-12-10T04:39:55;1044.6;;;18.5;53.8
76044;BME280;64740;34.694;33.088;2022-12-10T04:44:52;1044.6;;;18.5;53.8
76044;BME280;64740;34.694;33.088;2022-12-10T04:49:29;1044.7;;;18.5;53.8
76044;BME280;64740;34.694;33.088;2022-12-10T04:55:03;1044.6;;;18.5;53.5
76044;BME280;64740;34.694;33.088;2022-12-10T04:59:44;1044.7;;;18.5;53.7
76044;BME280;64740;34.694;33.088;2022-12-10T05:04:40;1044.6;;;18.5;53.7
76044;BME280;64740;34.694;33.088;2022-12-10T05:09:20;1044.6;;;18.5;53.5
76044;BME280;64740;34.694;33.088;2022-12-10T05:14:43;1044.6;;;18.5;53.7
76044;BME280;64740;34.694;33.088;2022-12-10T05:19:52;1044.6;;;18.5;53.6
76044;BME280;64740;34.694;33.088;2022-12-10T05:24:54;1044.6;;;18.5;53.5
76044;BME280;64740;34.694;33.088;2022-12-10T05:29:20;1044.6;;;18.4;53.3
76044;BME280;64740;34.694;33.088;2022-12-10T05:34:52;1044.6;;;18.4;53.3
76044;BME280;64740;34.694;33.088;2022-12-10T05:39:55;1044.6;;;18.3;53.4
76044;BME280;64740;34.694;33.088;2022-12-10T05:44:52;1044.7;;;18.4;53.4
76044;BME280;64740;34.694;33.088;2022-12-10T05:49:40;1044.6;;;18.4;53.4
76044;BME280;64740;34.694;33.088;2022-12-10T05:55:05;1044.6;;;18.5;53.2
76044;BME280;64740;34.694;33.088;2022-12-10T05:59:21;1044.7;;;18.6;53
76044;BME280;64740;34.694;33.088;2022-12-10T06:04:20;1044.7;;;18.7;52.9
76044;BME280;64740;34.694;33.088;2022-12-10T06:09:32;1044.7;;;18.9;52.7
76044;BME280;64740;34.694;33.088;2022-12-10T06:14:43;1044.8;;;19;52.3
76044;BME280;64740;34.694;33.088;2022-12-10T06:20:03;1044.8;;;19.2;52.2
76044;BME280;64740;34.694;33.088;2022-12-10T06:24:55;1044.8;;;19.3;51.8
76044;BME280;64740;34.694;33.088;2022-12-10T06:29:21;1044.8;;;19.5;51.6
76044;BME280;64740;34.694;33.088;2022-12-10T06:34:53;1044.8;;;19.6;51.3
76044;BME280;64740;34.694;33.088;2022-12-10T06:39:31;1044.8;;;19.7;51
76044;BME280;64740;34.694;33.088;2022-12-10T06:44:55;1044.9;;;19.8;51
76044;BME280;64740;34.694;33.088;2022-12-10T06:49:35;1044.9;;;19.9;51
76044;BME280;64740;34.694;33.088;2022-12-10T06:54:21;1045;;;20;51
76044;BME280;64740;34.694;33.088;2022-12-10T06:59:53;1044.9;;;20.2;50.9
76044;BME280;64740;34.694;33.088;2022-12-10T07:04:55;1045;;;20.3;50.6
76044;BME280;64740;34.694;33.088;2022-12-10T07:09:53;1044.9;;;20.5;50.5
76044;BME280;64740;34.694;33.088;2022-12-10T07:14:33;1045;;;20.6;50.4
76044;BME280;64740;34.694;33.088;2022-12-10T07:20:07;1044.9;;;20.8;50.1
76044;BME280;64740;34.694;33.088;2022-12-10T07:24:43;1045;;;20.9;49.7
76044;BME280;64740;34.694;33.088;2022-12-10T07:29:33;1045.1;;;21.1;49.7
76044;BME280;64740;34.694;33.088;2022-12-10T07:34:21;1045.1;;;21.3;49.5
76044;BME280;64740;34.694;33.088;2022-12-10T07:39:21;1045.1;;;21.5;49.5
76044;BME280;64740;34.694;33.088;2022-12-10T07:45:07;1045.1;;;21.7;49.9
76044;BME280;64740;34.694;33.088;2022-12-10T07:49:55;1045;;;21.9;49.9
76044;BME280;64740;34.694;33.088;2022-12-10T07:54:21;1044.9;;;22.1;50.1
76044;BME280;64740;34.694;33.088;2022-12-10T07:59:53;1044.8;;;22.3;50.6
76044;BME280;64740;34.694;33.088;2022-12-10T08:04:45;1044.7;;;22.5;50.9
76044;BME280;64740;34.694;33.088;2022-12-10T08:09:49;1044.7;;;22.7;50.8
76044;BME280;64740;34.694;33.088;2022-12-10T08:14:29;1044.6;;;22.8;51
76044;BME280;64740;34.694;33.088;2022-12-10T08:20:07;1044.6;;;22.7;51.1
76044;BME280;64740;34.694;33.088;2022-12-10T08:24:45;1044.5;;;22.7;51.5
76044;BME280;64740;34.694;33.088;2022-12-10T08:29:41;1044.5;;;22.7;51.8
76044;BME280;64740;34.694;33.088;2022-12-10T08:34:31;1044.4;;;22.6;51.6
76044;BME280;64740;34.694;33.088;2022-12-10T08:39:39;1044.3;;;22.7;51.6
76044;BME280;64740;34.694;33.088;2022-12-10T08:45:03;1044.3;;;22.8;51.7
76044;BME280;64740;34.694;33.088;2022-12-10T08:49:57;1044.3;;;22.9;51.7
76044;BME280;64740;34.694;33.088;2022-12-10T08:54:35;1044.2;;;23;51.4
76044;BME280;64740;34.694;33.088;2022-12-10T08:59:51;1044.1;;;23.2;51.3
76044;BME280;64740;34.694;33.088;2022-12-10T09:04:35;1044.2;;;23.3;50.6
76044;BME280;64740;34.694;33.088;2022-12-10T09:09:55;1044.2;;;23.5;49.8
76044;BME280;64740;34.694;33.088;2022-12-10T09:14:21;1044.1;;;23.7;50
76044;BME280;64740;34.694;33.088;2022-12-10T09:20:07;1044;;;23.8;49.1
76044;BME280;64740;34.694;33.088;2022-12-10T09:24:33;1043.9;;;23.9;49
76044;BME280;64740;34.694;33.088;2022-12-10T09:29:21;1043.8;;;23.9;48.4
76044;BME280;64740;34.694;33.088;2022-12-10T09:34:43;1043.8;;;23.8;48.2
76044;BME280;64740;34.694;33.088;2022-12-10T09:39:31;1043.7;;;23.8;48.2
76044;BME280;64740;34.694;33.088;2022-12-10T09:45:04;1043.6;;;23.8;48.4
76044;BME280;64740;34.694;33.088;2022-12-10T09:49:53;1043.5;;;23.8;48.1
76044;BME280;64740;34.694;33.088;2022-12-10T09:54:29;1043.4;;;23.8;48
76044;BME280;64740;34.694;33.088;2022-12-10T09:59:44;1043.4;;;23.8;47.6
76044;BME280;64740;34.694;33.088;2022-12-10T10:04:57;1043.3;;;23.9;47.1
76044;BME280;64740;34.694;33.088;2022-12-10T10:09:55;1043.3;;;23.9;46.6
76044;BME280;64740;34.694;33.088;2022-12-10T10:14:22;1043.4;;;24;46.9
76044;BME280;64740;34.694;33.088;2022-12-10T10:20:03;1043.3;;;24.2;46.7
76044;BME280;64740;34.694;33.088;2022-12-10T10:24:44;1043.3;;;24.3;46.2
76044;BME280;64740;34.694;33.088;2022-12-10T10:29:39;1043.3;;;24.5;46
76044;BME280;64740;34.694;33.088;2022-12-10T10:34:21;1043.2;;;24.8;45.9
76044;BME280;64740;34.694;33.088;2022-12-10T10:39:46;1043.2;;;25;45
76044;BME280;64740;34.694;33.088;2022-12-10T10:45:06;1043.2;;;25.2;44.6
76044;BME280;64740;34.694;33.088;2022-12-10T10:49:55;1043.1;;;25.4;44.2
76044;BME280;64740;34.694;33.088;2022-12-10T10:54:31;1043;;;25.6;43.5
76044;BME280;64740;34.694;33.088;2022-12-10T10:59:55;1043;;;25.7;43.4
76044;BME280;64740;34.694;33.088;2022-12-10T11:04:57;1043;;;25.8;43
76044;BME280;64740;34.694;33.088;2022-12-10T11:10:03;1042.9;;;26.1;42.5
76044;BME280;64740;34.694;33.088;2022-12-10T11:14:23;1042.9;;;26.2;42.2
76044;BME280;64740;34.694;33.088;2022-12-10T11:20:15;1042.8;;;26.6;41.5
76044;BME280;64740;34.694;33.088;2022-12-10T11:24:43;1042.8;;;26.7;41.4
76044;BME280;64740;34.694;33.088;2022-12-10T11:30:05;1042.8;;;26.6;40.9
76044;BME280;64740;34.694;33.088;2022-12-10T11:34:35;1042.8;;;26.8;40.8
76044;BME280;64740;34.694;33.088;2022-12-10T11:39:48;1042.7;;;27;40.5
76044;BME280;64740;34.694;33.088;2022-12-10T11:44:57;1042.7;;;27.4;39.8
76044;BME280;64740;34.694;33.088;2022-12-10T11:50:08;1042.7;;;27.6;39.4
76044;BME280;64740;34.694;33.088;2022-12-10T11:54:26;1042.8;;;27.9;39.1
76044;BME280;64740;34.694;33.088;2022-12-10T12:00:13;1042.7;;;28;38.6
76044;BME280;64740;34.694;33.088;2022-12-10T12:05:04;1042.7;;;28.1;38.2
76044;BME280;64740;34.694;33.088;2022-12-10T12:09:23;1042.7;;;27.9;38.4
76044;BME280;64740;34.694;33.088;2022-12-10T12:14:42;1042.7;;;28.1;38
76044;BME280;64740;34.694;33.088;2022-12-10T12:20:08;1042.6;;;28.2;37.8
76044;BME280;64740;34.694;33.088;2022-12-10T12:24:44;1042.6;;;28;37.7
76044;BME280;64740;34.694;33.088;2022-12-10T12:30:05;1042.6;;;28;37.9
76044;BME280;64740;34.694;33.088;2022-12-10T12:34:36;1042.6;;;28.1;37.8
76044;BME280;64740;34.694;33.088;2022-12-10T12:39:43;1042.6;;;28.5;37.1
76044;BME280;64740;34.694;33.088;2022-12-10T12:44:56;1042.6;;;28.7;36.8
76044;BME280;64740;34.694;33.088;2022-12-10T12:50:05;1042.6;;;29;36.3
76044;BME280;64740;34.694;33.088;2022-12-10T12:54:57;1042.6;;;29.3;35.9
76044;BME280;64740;34.694;33.088;2022-12-10T13:00:05;1042.6;;;29.3;35.8
76044;BME280;64740;34.694;33.088;2022-12-10T13:04:53;1042.5;;;29.2;35.8
76044;BME280;64740;34.694;33.088;2022-12-10T13:09:25;1042.5;;;29.2;35.6
76044;BME280;64740;34.694;33.088;2022-12-10T13:14:29;1042.5;;;29.2;35.5
76044;BME280;64740;34.694;33.088;2022-12-10T13:20:40;1042.4;;;29;35.6
76044;BME280;64740;34.694;33.088;2022-12-10T13:24:46;1042.5;;;28.8;36.1
76044;BME280;64740;34.694;33.088;2022-12-10T13:30:25;1042.5;;;28.6;36.1
76044;BME280;64740;34.694;33.088;2022-12-10T13:34:22;1042.5;;;28.5;36
76044;BME280;64740;34.694;33.088;2022-12-10T13:39:45;1042.4;;;28.3;36.5
76044;BME280;64740;34.694;33.088;2022-12-10T13:44:58;1042.4;;;27.7;37.2
76044;BME280;64740;34.694;33.088;2022-12-10T13:50:05;1042.4;;;27;38.1
76044;BME280;64740;34.694;33.088;2022-12-10T13:55:09;1042.4;;;26.6;38.8
76044;BME280;64740;34.694;33.088;2022-12-10T14:00:07;1042.4;;;26.3;39.5
76044;BME280;64740;34.694;33.088;2022-12-10T14:05:03;1042.4;;;26.1;40.1
76044;BME280;64740;34.694;33.088;2022-12-10T14:09:21;1042.5;;;25.8;40.8
76044;BME280;64740;34.694;33.088;2022-12-10T14:14:22;1042.5;;;25.4;41.4
76044;BME280;64740;34.694;33.088;2022-12-10T14:20:06;1042.5;;;25.1;42
76044;BME280;64740;34.694;33.088;2022-12-10T14:24:32;1042.6;;;24.9;42.6
76044;BME280;64740;34.694;33.088;2022-12-10T14:29:51;1042.6;;;24.6;43.5
76044;BME280;64740;34.694;33.088;2022-12-10T14:34:43;1042.6;;;24.3;43.9
76044;BME280;64740;34.694;33.088;2022-12-10T14:39:41;1042.6;;;24;44.5
76044;BME280;64740;34.694;33.088;2022-12-10T14:44:54;1042.6;;;23.8;45
76044;BME280;64740;34.694;33.088;2022-12-10T14:50:03;1042.7;;;23.6;45.2
76044;BME280;64740;34.694;33.088;2022-12-10T14:54:23;1042.7;;;23.5;45.5
76044;BME280;64740;34.694;33.088;2022-12-10T15:00:04;1042.7;;;23.3;46.2
76044;BME280;64740;34.694;33.088;2022-12-10T15:04:55;1042.7;;;23.2;46.6
76044;BME280;64740;34.694;33.088;2022-12-10T15:09:22;1042.7;;;23.1;46.7
76044;BME280;64740;34.694;33.088;2022-12-10T15:14:21;1042.7;;;23;47.1
76044;BME280;64740;34.694;33.088;2022-12-10T15:20:03;1042.8;;;22.9;47.2
76044;BME280;64740;34.694;33.088;2022-12-10T15:24:36;1042.8;;;22.8;47.3
76044;BME280;64740;34.694;33.088;2022-12-10T15:30:20;1042.8;;;22.8;47.7
76044;BME280;64740;34.694;33.088;2022-12-10T15:34:33;1042.8;;;22.7;47.8
76044;BME280;64740;34.694;33.088;2022-12-10T15:39:43;1042.8;;;22.6;48.1
76044;BME280;64740;34.694;33.088;2022-12-10T15:44:55;1042.8;;;22.6;48.4
76044;BME280;64740;34.694;33.088;2022-12-10T15:49:49;1042.9;;;22.5;48.8
76044;BME280;64740;34.694;33.088;2022-12-10T15:54:32;1042.9;;;22.4;48.9
76044;BME280;64740;34.694;33.088;2022-12-10T16:00:04;1042.9;;;22.4;48.9
76044;BME280;64740;34.694;33.088;2022-12-10T16:04:43;1043;;;22.3;49.1
76044;BME280;64740;34.694;33.088;2022-12-10T16:09:31;1043;;;22.1;49.2
76044;BME280;64740;34.694;33.088;2022-12-10T16:14:21;1043;;;22;49.5
76044;BME280;64740;34.694;33.088;2022-12-10T16:20:09;1043;;;21.9;49.8
76044;BME280;64740;34.694;33.088;2022-12-10T16:24:43;1042.9;;;21.8;50
76044;BME280;64740;34.694;33.088;2022-12-10T16:30:05;1042.9;;;21.8;50.2
76044;BME280;64740;34.694;33.088;2022-12-10T16:34:21;1042.9;;;21.7;50.5
76044;BME280;64740;34.694;33.088;2022-12-10T16:39:39;1042.9;;;21.6;50.7
76044;BME280;64740;34.694;33.088;2022-12-10T16:44:51;1042.9;;;21.5;50.9
76044;BME280;64740;34.694;33.088;2022-12-10T16:49:49;1043;;;21.4;51.1
76044;BME280;64740;34.694;33.088;2022-12-10T16:54:21;1043;;;21.4;51.2
76044;BME280;64740;34.694;33.088;2022-12-10T17:00:03;1042.9;;;21.3;51.4
76044;BME280;64740;34.694;33.088;2022-12-10T17:04:55;1042.9;;;21.2;51.5
76044;BME280;64740;34.694;33.088;2022-12-10T17:09:39;1043;;;21.1;51.7
76044;BME280;64740;34.694;33.088;2022-12-10T17:14:22;1043;;;21.1;51.8
76044;BME280;64740;34.694;33.088;2022-12-10T17:20:01;1043;;;21;51.9
76044;BME280;64740;34.694;33.088;2022-12-10T17:24:41;1043;;;21;52.1
76044;BME280;64740;34.694;33.088;2022-12-10T17:30:03;1043;;;20.9;52.2
76044;BME280;64740;34.694;33.088;2022-12-10T17:34:21;1043;;;20.9;52.3
76044;BME280;64740;34.694;33.088;2022-12-10T17:39:43;1043;;;20.8;52.4
76044;BME280;64740;34.694;33.088;2022-12-10T17:44:51;1042.9;;;20.8;52.5
76044;BME280;64740;34.694;33.088;2022-12-10T17:50:03;1042.9;;;20.7;52.6
76044;BME280;64740;34.694;33.088;2022-12-10T17:54:31;1043;;;20.6;52.7
76044;BME280;64740;34.694;33.088;2022-12-10T18:00:01;1043;;;20.6;52.8
76044;BME280;64740;34.694;33.088;2022-12-10T18:04:53;1043.1;;;20.6;52.9
76044;BME280;64740;34.694;33.088;2022-12-10T18:09:37;1043.1;;;20.5;53
76044;BME280;64740;34.694;33.088;2022-12-10T18:14:21;1043.1;;;20.5;53.1
76044;BME280;64740;34.694;33.088;2022-12-10T18:19:59;1043.2;;;20.5;53.1
76044;BME280;64740;34.694;33.088;2022-12-10T18:24:41;1043.2;;;20.4;53.2
76044;BME280;64740;34.694;33.088;2022-12-10T18:30:01;1043.2;;;20.4;53.2
76044;BME280;64740;34.694;33.088;2022-12-10T18:34:21;1043.2;;;20.4;53.2
76044;BME280;64740;34.694;33.088;2022-12-10T18:39:21;1043.2;;;20.4;53.3
76044;BME280;64740;34.694;33.088;2022-12-10T18:44:49;1043.1;;;20.4;53.3
76044;BME280;64740;34.694;33.088;2022-12-10T18:50:01;1043.1;;;20.4;53.3
76044;BME280;64740;34.694;33.088;2022-12-10T18:54:29;1043.1;;;20.4;53.4
76044;BME280;64740;34.694;33.088;2022-12-10T19:00:01;1043.2;;;20.4;53.3
76044;BME280;64740;34.694;33.088;2022-12-10T19:04:53;1043.3;;;20.3;53.4
76044;BME280;64740;34.694;33.088;2022-12-10T19:09:21;1043.3;;;20.3;53.5
76044;BME280;64740;34.694;33.088;2022-12-10T19:14:21;1043.2;;;20.2;53.5
76044;BME280;64740;34.694;33.088;2022-12-10T19:20:01;1043.2;;;20.2;53.6
76044;BME280;64740;34.694;33.088;2022-12-10T19:24:29;1043.2;;;20.2;53.5
76044;BME280;64740;34.694;33.088;2022-12-10T19:30:01;1043.2;;;20.2;53.5
76044;BME280;64740;34.694;33.088;2022-12-10T19:34:29;1043.2;;;20.2;53.6
76044;BME280;64740;34.694;33.088;2022-12-10T19:39:41;1043.2;;;20.1;53.6
76044;BME280;64740;34.694;33.088;2022-12-10T19:44:53;1043.1;;;20.1;53.7
76044;BME280;64740;34.694;33.088;2022-12-10T19:50:03;1043.1;;;20.1;53.7
76044;BME280;64740;34.694;33.088;2022-12-10T19:54:21;1043.1;;;20;53.8
76044;BME280;64740;34.694;33.088;2022-12-10T20:00:03;1043;;;20;53.8
76044;BME280;64740;34.694;33.088;2022-12-10T20:04:55;1043;;;20;53.8
76044;BME280;64740;34.694;33.088;2022-12-10T20:09:39;1042.9;;;19.9;53.8
76044;BME280;64740;34.694;33.088;2022-12-10T20:14:21;1043;;;19.9;53.8
76044;BME280;64740;34.694;33.088;2022-12-10T20:19:22;1043;;;19.9;53.8
76044;BME280;64740;34.694;33.088;2022-12-10T20:24:31;1043.1;;;19.9;53.9
76044;BME280;64740;34.694;33.088;2022-12-10T20:30:03;1043.1;;;19.9;54
76044;BME280;64740;34.694;33.088;2022-12-10T20:34:21;1043.1;;;19.9;54
76044;BME280;64740;34.694;33.088;2022-12-10T20:39:51;1043.2;;;19.9;54.1
76044;BME280;64740;34.694;33.088;2022-12-10T20:44:53;1043.2;;;19.9;54
76044;BME280;64740;34.694;33.088;2022-12-10T20:49:51;1043.2;;;19.8;53.9
76044;BME280;64740;34.694;33.088;2022-12-10T20:54:21;1043.1;;;19.8;53.9
76044;BME280;64740;34.694;33.088;2022-12-10T20:59:55;1043.1;;;19.8;54
76044;BME280;64740;34.694;33.088;2022-12-10T21:05:01;1043;;;19.8;54
76044;BME280;64740;34.694;33.088;2022-12-10T21:09:39;1043;;;19.8;54
76044;BME280;64740;34.694;33.088;2022-12-10T21:14:31;1043;;;19.8;54.1
76044;BME280;64740;34.694;33.088;2022-12-10T21:19:39;1042.9;;;19.8;54.1
76044;BME280;64740;34.694;33.088;2022-12-10T21:24:43;1042.9;;;19.8;54.1
76044;BME280;64740;34.694;33.088;2022-12-10T21:30:03;1042.9;;;19.8;54
76044;BME280;64740;34.694;33.088;2022-12-10T21:34:29;1042.9;;;19.8;54
76044;BME280;64740;34.694;33.088;2022-12-10T21:39:51;1042.8;;;19.7;54.1
76044;BME280;64740;34.694;33.088;2022-12-10T21:44:53;1042.9;;;19.7;54.1
76044;BME280;64740;34.694;33.088;2022-12-10T21:49:31;1042.8;;;19.7;54.2
76044;BME280;64740;34.694;33.088;2022-12-10T21:54:29;1042.8;;;19.7;54.2
76044;BME280;64740;34.694;33.088;2022-12-10T21:59:51;1042.7;;;19.7;54.1
76044;BME280;64740;34.694;33.088;2022-12-10T22:04:59;1042.7;;;19.7;54.2
76044;BME280;64740;34.694;33.088;2022-12-10T22:09:37;1042.7;;;19.7;54
76044;BME280;64740;34.694;33.088;2022-12-10T22:14:29;1042.6;;;19.6;54
76044;BME280;64740;34.694;33.088;2022-12-10T22:19:47;1042.6;;;19.6;54.1
76044;BME280;64740;34.694;33.088;2022-12-10T22:24:41;1042.6;;;19.5;54.2
76044;BME280;64740;34.694;33.088;2022-12-10T22:30:02;1042.5;;;19.5;54.3
76044;BME280;64740;34.694;33.088;2022-12-10T22:34:39;1042.4;;;19.5;54.3
76044;BME280;64740;34.694;33.088;2022-12-10T22:39:39;1042.4;;;19.5;54.2
76044;BME280;64740;34.694;33.088;2022-12-10T22:44:49;1042.3;;;19.5;54.2
76044;BME280;64740;34.694;33.088;2022-12-10T22:49:49;1042.3;;;19.5;54.3
76044;BME280;64740;34.694;33.088;2022-12-10T22:54:21;1042.3;;;19.4;54.3
76044;BME280;64740;34.694;33.088;2022-12-10T22:59:53;1042.3;;;19.4;54.3
76044;BME280;64740;34.694;33.088;2022-12-10T23:05:01;1042.3;;;19.4;54.3
76044;BME280;64740;34.694;33.088;2022-12-10T23:09:37;1042.4;;;19.4;54.3
76044;BME280;64740;34.694;33.088;2022-12-10T23:14:31;1042.4;;;19.4;54.3
76044;BME280;64740;34.694;33.088;2022-12-10T23:19:39;1042.4;;;19.3;54.3
76044;BME280;64740;34.694;33.088;2022-12-10T23:24:39;1042.5;;;19.3;54.4
76044;BME280;64740;34.694;33.088;2022-12-10T23:30:01;1042.5;;;19.3;54.4
76044;BME280;64740;34.694;33.088;2022-12-10T23:34:29;1042.5;;;19.4;54.4
76044;BME280;64740;34.694;33.088;2022-12-10T23:39:52;1042.4;;;19.4;54.4
76044;BME280;64740;34.694;33.088;2022-12-10T23:44:51;1042.4;;;19.4;54.4
76044;BME280;64740;34.694;33.088;2022-12-10T23:49:49;1042.4;;;19.3;54.4
76044;BME280;64740;34.694;33.088;2022-12-10T23:54:29;1042.3;;;19.3;54.4
76044;BME280;64740;34.694;33.088;2022-12-10T23:59:51;1042.2;;;19.3;54.4
